Time;durP1;ratioP1;P1;durP2;ratioP2;P2;SDS_P1;SDS_P2;PMS_P1;PMS_P2;Temp;Humidity;BMP_temperature;BMP_pressure;BME280_temperature;BME280_humidity;BME280_pressure;Samples;Min_cycle;Max_cycle;Signal;HPM_P1;HPM_P2
2022/11/10 00:00:07;;;;;;;;;;;22.50;57.00;;;;;;1538529;76;660;-64
2022/11/10 00:02:09;;;;;;;;;;;22.50;57.00;;;;;;1533693;76;1109;-64
2022/11/10 00:04:10;;;;;;;;;;;22.50;57.00;;;;;;1527892;75;642;-65
2022/11/10 00:06:12;;;;;;;;;;;22.50;57.10;;;;;;1535697;75;710;-63
2022/11/10 00:08:14;;;;;;;;;;;22.50;57.30;;;;;;1527825;76;750;-63
2022/11/10 00:10:16;;;;;;;;;;;22.40;57.10;;;;;;1539846;77;634;-64
2022/11/10 00:12:19;;;;;;;;;;;22.50;57.20;;;;;;1526909;76;1186;-63
2022/11/10 00:19:00;;;;;;;;;;;22.50;57.30;;;;;;1535829;75;1653;-64
2022/11/10 00:21:02;;;;;;;;;;;22.50;57.30;;;;;;1538007;76;756;-64
2022/11/10 00:23:04;;;;;;;;;;;22.50;57.30;;;;;;1537580;76;1174;-64
2022/11/10 00:25:06;;;;;;;;;;;22.50;57.30;;;;;;1538855;76;745;-64
2022/11/10 00:27:08;;;;;;;;;;;22.50;57.20;;;;;;1534007;75;651;-63
2022/11/10 00:29:10;;;;;;;;;;;22.50;57.20;;;;;;1539780;76;729;-64
2022/11/10 00:31:12;;;;;;;;;;;22.50;57.30;;;;;;1540513;75;506;-64
2022/11/10 00:33:14;;;;;;;;;;;22.50;57.30;;;;;;1533095;76;1135;-64
2022/11/10 00:35:16;;;;;;;;;;;22.50;57.30;;;;;;1535490;76;664;-63
2022/11/10 00:37:17;;;;;;;;;;;22.50;57.30;;;;;;1537762;75;1918;-63
2022/11/10 00:39:19;;;;;;;;;;;22.50;57.30;;;;;;1537062;76;713;-63
2022/11/10 00:41:21;;;;;;;;;;;22.50;57.10;;;;;;1536109;76;686;-63
2022/11/10 00:43:23;;;;;;;;;;;22.50;57.20;;;;;;1539611;76;1115;-63
2022/11/10 00:45:25;;;;;;;;;;;22.50;57.20;;;;;;1543069;75;663;-63
2022/11/10 00:47:27;;;;;;;;;;;22.50;57.30;;;;;;1539338;75;1423;-63
2022/11/10 00:49:29;;;;;;;;;;;22.50;57.40;;;;;;1540143;75;732;-64
2022/11/10 00:51:30;;;;;;;;;;;22.50;57.30;;;;;;1541900;75;705;-64
2022/11/10 00:53:32;;;;;;;;;;;22.50;57.60;;;;;;1579934;71;229227;-69
2022/11/10 00:55:36;;;;;;;;;;;22.40;57.50;;;;;;1600725;72;675;-69
2022/11/10 00:57:38;;;;;;;;;;;22.40;57.60;;;;;;1593683;73;1945;-69
2022/11/10 00:59:40;;;;;;;;;;;22.30;57.70;;;;;;1601018;73;652;-70
2022/11/10 01:01:41;;;;;;;;;;;22.40;57.80;;;;;;1597907;73;702;-70
2022/11/10 01:03:43;;;;;;;;;;;22.30;57.90;;;;;;1595225;74;1152;-71
2022/11/10 01:05:45;;;;;;;;;;;22.40;57.90;;;;;;1605804;72;652;-72
2022/11/10 01:07:47;;;;;;;;;;;22.40;57.90;;;;;;1615624;72;706;-70
2022/11/10 01:09:49;;;;;;;;;;;22.40;57.90;;;;;;1620163;72;690;-69
2022/11/10 01:11:51;;;;;;;;;;;22.40;58.10;;;;;;1604471;74;711;-71
2022/11/10 01:13:53;;;;;;;;;;;22.40;58.10;;;;;;1623190;72;1142;-67
2022/11/10 01:15:55;;;;;;;;;;;22.20;58.00;;;;;;1618381;72;704;-70
2022/11/10 01:17:57;;;;;;;;;;;22.30;58.10;;;;;;1618633;72;1955;-69
2022/11/10 01:19:59;;;;;;;;;;;22.40;58.20;;;;;;1618480;72;721;-71
2022/11/10 01:22:01;;;;;;;;;;;22.30;58.20;;;;;;1609029;72;714;-69
2022/11/10 01:24:03;;;;;;;;;;;22.30;58.30;;;;;;1604378;72;1106;-72
2022/11/10 01:26:05;;;;;;;;;;;22.30;58.30;;;;;;1607417;72;697;-69
2022/11/10 01:28:07;;;;;;;;;;;22.40;58.20;;;;;;1609635;72;685;-70
2022/11/10 01:30:09;;;;;;;;;;;22.40;58.20;;;;;;1624864;72;724;-68
2022/11/10 01:32:11;;;;;;;;;;;22.40;58.20;;;;;;1624487;72;800;-69
2022/11/10 01:34:13;;;;;;;;;;;22.40;58.30;;;;;;1620932;72;1134;-69
2022/11/10 01:36:14;;;;;;;;;;;22.40;58.30;;;;;;1618933;72;542;-69
2022/11/10 01:38:16;;;;;;;;;;;22.40;58.30;;;;;;1623152;71;1939;-68
2022/11/10 01:40:18;;;;;;;;;;;22.40;58.40;;;;;;1617175;72;711;-69
2022/11/10 01:42:27;;;;;;;;;;;22.40;58.40;;;;;;1620831;72;1121;-69
2022/11/10 01:44:28;;;;;;;;;;;22.40;58.50;;;;;;1614470;72;1515;-70
2022/11/10 01:46:30;;;;;;;;;;;22.20;58.80;;;;;;1616347;72;775;-70
2022/11/10 01:48:33;;;;;;;;;;;22.20;58.80;;;;;;1616784;72;737;-70
2022/11/10 01:50:36;;;;;;;;;;;22.30;58.90;;;;;;1619475;72;670;-69
2022/11/10 01:52:38;;;;;;;;;;;22.30;58.80;;;;;;1624364;72;1139;-69
2022/11/10 01:54:44;;;;;;;;;;;22.40;58.50;;;;;;1621277;72;666;-70
2022/11/10 01:56:47;;;;;;;;;;;22.40;58.30;;;;;;1620438;72;1916;-70
2022/11/10 01:58:51;;;;;;;;;;;22.50;58.40;;;;;;1620680;72;754;-69
2022/11/10 02:00:53;;;;;;;;;;;22.40;58.30;;;;;;1617680;72;760;-67
2022/11/10 02:02:59;;;;;;;;;;;22.40;58.40;;;;;;1611883;72;1155;-69
2022/11/10 02:05:01;;;;;;;;;;;22.40;58.40;;;;;;1619496;72;2079;-69
2022/11/10 02:07:03;;;;;;;;;;;22.40;58.30;;;;;;1617386;72;673;-70
2022/11/10 02:09:05;;;;;;;;;;;22.40;58.30;;;;;;1617473;72;688;-69
2022/11/10 02:11:07;;;;;;;;;;;22.40;58.50;;;;;;1609838;72;682;-70
2022/11/10 02:13:09;;;;;;;;;;;22.40;58.40;;;;;;1624215;72;1089;-70
2022/11/10 02:15:13;;;;;;;;;;;22.40;58.40;;;;;;1613070;72;732;-71
2022/11/10 02:17:15;;;;;;;;;;;22.40;58.30;;;;;;1614891;72;1934;-69
2022/11/10 02:19:18;;;;;;;;;;;22.40;58.10;;;;;;1612900;72;658;-70
2022/11/10 02:21:20;;;;;;;;;;;22.40;58.40;;;;;;1623151;72;1849;-69
2022/11/10 02:23:33;;;;;;;;;;;22.40;58.30;;;;;;1606884;72;1169;-69
2022/11/10 02:25:35;;;;;;;;;;;22.30;58.30;;;;;;1614684;72;790;-70
2022/11/10 02:27:36;;;;;;;;;;;22.40;58.40;;;;;;1619451;72;700;-70
2022/11/10 02:29:38;;;;;;;;;;;22.40;58.40;;;;;;1618038;72;765;-69
2022/11/10 02:31:40;;;;;;;;;;;22.30;58.50;;;;;;1621429;72;745;-69
2022/11/10 02:33:42;;;;;;;;;;;22.30;58.50;;;;;;1620177;72;1158;-69
2022/11/10 02:35:45;;;;;;;;;;;22.40;58.50;;;;;;1623096;72;690;-70
2022/11/10 02:37:47;;;;;;;;;;;22.40;58.50;;;;;;1615310;72;1947;-66
2022/11/10 02:39:49;;;;;;;;;;;22.30;58.40;;;;;;1618447;72;650;-69
2022/11/10 02:41:51;;;;;;;;;;;22.40;58.50;;;;;;1608602;72;1573;-70
2022/11/10 02:43:53;;;;;;;;;;;22.40;58.90;;;;;;1614075;72;1081;-70
2022/11/10 02:45:54;;;;;;;;;;;22.20;58.70;;;;;;1620788;72;740;-70
2022/11/10 02:47:56;;;;;;;;;;;22.20;58.70;;;;;;1616480;72;753;-70
2022/11/10 02:49:58;;;;;;;;;;;22.20;58.80;;;;;;1624194;72;694;-71
2022/11/10 02:52:00;;;;;;;;;;;22.30;58.80;;;;;;1618836;72;728;-70
2022/11/10 02:54:02;;;;;;;;;;;22.30;58.90;;;;;;1611808;72;1092;-69
2022/11/10 02:56:04;;;;;;;;;;;22.30;59.00;;;;;;1614502;72;699;-70
2022/11/10 02:58:06;;;;;;;;;;;22.30;59.00;;;;;;1613115;72;1932;-70
2022/11/10 03:00:08;;;;;;;;;;;22.20;58.70;;;;;;1618659;72;729;-67
2022/11/10 03:02:10;;;;;;;;;;;22.20;58.90;;;;;;1607131;72;682;-71
2022/11/10 03:04:12;;;;;;;;;;;22.30;58.90;;;;;;1610423;72;1103;-69
2022/11/10 03:06:14;;;;;;;;;;;22.20;58.90;;;;;;1607658;72;854;-70
2022/11/10 03:08:16;;;;;;;;;;;22.30;59.00;;;;;;1618892;72;715;-70
2022/11/10 03:10:18;;;;;;;;;;;22.20;58.90;;;;;;1627684;72;684;-69
2022/11/10 03:12:20;;;;;;;;;;;22.20;58.90;;;;;;1615818;72;1138;-70
2022/11/10 03:14:22;;;;;;;;;;;22.20;59.10;;;;;;1602652;72;708;-70
2022/11/10 03:16:24;;;;;;;;;;;22.20;59.10;;;;;;1602562;72;681;-69
2022/11/10 03:18:26;;;;;;;;;;;22.20;59.00;;;;;;1615023;72;1936;-69
2022/11/10 03:20:27;;;;;;;;;;;22.30;59.20;;;;;;1622135;72;725;-70
2022/11/10 03:22:29;;;;;;;;;;;22.20;59.20;;;;;;1618520;72;1157;-70
2022/11/10 03:24:31;;;;;;;;;;;22.20;59.10;;;;;;1616215;72;642;-70
2022/11/10 03:26:33;;;;;;;;;;;22.30;59.20;;;;;;1614902;72;740;-72
2022/11/10 03:28:35;;;;;;;;;;;22.20;59.10;;;;;;1619833;72;691;-70
2022/11/10 03:30:37;;;;;;;;;;;22.20;59.10;;;;;;1621779;72;664;-69
2022/11/10 03:32:39;;;;;;;;;;;22.30;59.20;;;;;;1616821;72;1157;-70
2022/11/10 03:34:41;;;;;;;;;;;22.20;59.20;;;;;;1618429;72;692;-70
2022/11/10 03:36:42;;;;;;;;;;;22.20;59.00;;;;;;1619023;72;1357;-70
2022/11/10 03:38:44;;;;;;;;;;;22.30;59.00;;;;;;1625535;72;1923;-71
2022/11/10 03:40:46;;;;;;;;;;;22.30;59.00;;;;;;1626557;72;674;-71
2022/11/10 03:42:48;;;;;;;;;;;22.30;59.00;;;;;;1627657;72;1142;-68
2022/11/10 03:44:50;;;;;;;;;;;22.40;58.90;;;;;;1618053;72;752;-69
2022/11/10 03:46:52;;;;;;;;;;;22.30;58.80;;;;;;1620654;72;673;-69
2022/11/10 03:48:54;;;;;;;;;;;22.40;58.80;;;;;;1609413;72;715;-69
2022/11/10 03:50:56;;;;;;;;;;;22.30;58.80;;;;;;1614564;72;756;-69
2022/11/10 03:52:57;;;;;;;;;;;22.40;58.40;;;;;;1622278;72;1162;-70
2022/11/10 03:54:59;;;;;;;;;;;22.40;58.40;;;;;;1622260;72;788;-71
2022/11/10 03:57:01;;;;;;;;;;;22.40;58.40;;;;;;1630323;72;669;-70
2022/11/10 03:59:03;;;;;;;;;;;22.40;58.80;;;;;;1622101;72;1959;-71
2022/11/10 04:01:05;;;;;;;;;;;22.40;58.90;;;;;;1620608;72;681;-71
2022/11/10 04:03:07;;;;;;;;;;;22.40;59.00;;;;;;1616335;72;1267;-70
2022/11/10 04:09:49;;;;;;;;;;;22.20;59.00;;;;;;1615208;72;767;-70
2022/11/10 04:16:30;;;;;;;;;;;22.20;59.10;;;;;;1616883;72;1654;-71
2022/11/10 04:18:32;;;;;;;;;;;22.20;59.20;;;;;;1615467;72;1937;-68
2022/11/10 04:20:34;;;;;;;;;;;22.20;59.20;;;;;;1613749;72;540;-71
2022/11/10 04:24:55;;;;;;;;;;;22.30;59.20;;;;;;1610895;72;1625;-68
2022/11/10 04:26:57;;;;;;;;;;;22.20;59.10;;;;;;1621794;72;781;-70
2022/11/10 04:29:00;;;;;;;;;;;22.30;59.20;;;;;;1611613;72;757;-71
2022/11/10 04:31:01;;;;;;;;;;;22.30;59.20;;;;;;1618582;72;722;-70
2022/11/10 04:33:03;;;;;;;;;;;22.40;59.10;;;;;;1614357;72;1639;-70
2022/11/10 04:35:05;;;;;;;;;;;22.40;59.10;;;;;;1620621;72;708;-70
2022/11/10 04:37:07;;;;;;;;;;;22.40;59.00;;;;;;1602924;72;751;-71
2022/11/10 04:39:09;;;;;;;;;;;22.30;59.00;;;;;;1614980;72;1938;-72
2022/11/10 04:41:11;;;;;;;;;;;22.30;59.00;;;;;;1614913;72;685;-70
2022/11/10 04:43:13;;;;;;;;;;;22.40;59.00;;;;;;1602237;72;1158;-70
2022/11/10 04:45:15;;;;;;;;;;;22.40;59.00;;;;;;1613638;72;645;-70
2022/11/10 04:47:17;;;;;;;;;;;22.40;59.00;;;;;;1609670;72;665;-70
2022/11/10 04:49:18;;;;;;;;;;;22.30;59.10;;;;;;1613879;72;705;-68
2022/11/10 04:51:21;;;;;;;;;;;22.30;59.00;;;;;;1618193;72;664;-70
2022/11/10 04:53:24;;;;;;;;;;;22.40;59.00;;;;;;1620292;72;1153;-68
2022/11/10 04:55:26;;;;;;;;;;;22.30;59.00;;;;;;1614302;72;769;-70
2022/11/10 04:57:28;;;;;;;;;;;22.30;59.10;;;;;;1618826;72;756;-69
2022/11/10 04:59:29;;;;;;;;;;;22.40;59.00;;;;;;1618486;72;1935;-70
2022/11/10 05:01:31;;;;;;;;;;;22.30;59.00;;;;;;1614261;72;671;-70
2022/11/10 05:03:33;;;;;;;;;;;22.40;59.10;;;;;;1616943;72;1183;-70
2022/11/10 05:05:35;;;;;;;;;;;22.30;59.10;;;;;;1626519;72;715;-70
2022/11/10 05:07:37;;;;;;;;;;;22.30;59.10;;;;;;1617681;72;673;-69
2022/11/10 05:09:39;;;;;;;;;;;22.40;59.00;;;;;;1615503;72;682;-72
2022/11/10 05:11:41;;;;;;;;;;;22.30;59.00;;;;;;1621825;72;697;-69
2022/11/10 05:13:43;;;;;;;;;;;22.30;59.10;;;;;;1619605;72;1139;-69
2022/11/10 05:15:45;;;;;;;;;;;22.30;59.20;;;;;;1617191;72;686;-69
2022/11/10 05:17:50;;;;;;;;;;;22.30;59.20;;;;;;1616984;72;1936;-70
2022/11/10 05:19:51;;;;;;;;;;;22.30;59.30;;;;;;1621417;72;761;-71
2022/11/10 05:21:53;;;;;;;;;;;22.30;59.10;;;;;;1626396;72;771;-68
2022/11/10 05:23:55;;;;;;;;;;;22.40;59.20;;;;;;1619224;72;1155;-69
2022/11/10 05:25:57;;;;;;;;;;;22.30;59.10;;;;;;1612448;72;719;-70
2022/11/10 05:27:59;;;;;;;;;;;22.30;59.00;;;;;;1623953;72;712;-69
2022/11/10 05:30:01;;;;;;;;;;;22.40;59.00;;;;;;1614690;72;1630;-69
2022/11/10 05:32:03;;;;;;;;;;;22.40;59.00;;;;;;1612302;72;768;-69
2022/11/10 05:34:05;;;;;;;;;;;22.30;59.00;;;;;;1616099;72;1106;-68
2022/11/10 05:36:07;;;;;;;;;;;22.30;59.10;;;;;;1614203;72;803;-74
2022/11/10 05:38:08;;;;;;;;;;;22.20;59.30;;;;;;1621638;72;1945;-65
2022/11/10 05:40:10;;;;;;;;;;;22.20;59.40;;;;;;1615608;72;703;-71
2022/11/10 05:42:12;;;;;;;;;;;22.20;59.50;;;;;;1617068;72;707;-69
2022/11/10 05:44:14;;;;;;;;;;;22.30;59.40;;;;;;1619184;72;1134;-69
2022/11/10 05:46:16;;;;;;;;;;;22.40;59.10;;;;;;1616596;72;721;-69
2022/11/10 05:48:18;;;;;;;;;;;22.40;59.10;;;;;;1615159;72;720;-67
2022/11/10 05:50:20;;;;;;;;;;;22.40;59.00;;;;;;1618426;72;683;-71
2022/11/10 05:52:22;;;;;;;;;;;22.40;59.00;;;;;;1618916;72;1170;-69
2022/11/10 05:54:24;;;;;;;;;;;22.50;59.00;;;;;;1621868;72;709;-69
2022/11/10 05:56:26;;;;;;;;;;;22.50;59.00;;;;;;1621904;72;770;-69
2022/11/10 05:58:28;;;;;;;;;;;22.40;59.00;;;;;;1623733;72;1945;-71
2022/11/10 06:00:30;;;;;;;;;;;22.50;59.10;;;;;;1617463;72;745;-70
2022/11/10 06:02:32;;;;;;;;;;;22.50;59.10;;;;;;1622798;72;1151;-72
2022/11/10 06:04:34;;;;;;;;;;;22.40;59.40;;;;;;1617349;72;730;-67
2022/11/10 06:06:35;;;;;;;;;;;22.20;59.50;;;;;;1613667;72;789;-67
2022/11/10 06:08:37;;;;;;;;;;;22.20;59.70;;;;;;1621657;72;689;-68
2022/11/10 06:10:39;;;;;;;;;;;22.30;59.70;;;;;;1615713;72;682;-68
2022/11/10 06:12:41;;;;;;;;;;;22.40;59.50;;;;;;1622650;72;1148;-69
2022/11/10 06:14:43;;;;;;;;;;;22.40;59.30;;;;;;1616818;72;743;-70
2022/11/10 06:16:45;;;;;;;;;;;22.30;59.50;;;;;;1619474;72;669;-68
2022/11/10 06:18:47;;;;;;;;;;;22.20;59.70;;;;;;1615323;72;1945;-70
2022/11/10 06:20:48;;;;;;;;;;;22.10;60.10;;;;;;1621056;72;713;-69
2022/11/10 06:23:06;;;;;;;;;;;22.20;60.20;;;;;;1613419;72;1199;-67
2022/11/10 06:25:08;;;;;;;;;;;22.20;60.30;;;;;;1608667;72;1534;-68
2022/11/10 06:27:10;;;;;;;;;;;22.10;60.30;;;;;;1614127;72;663;-69
2022/11/10 06:29:12;;;;;;;;;;;22.20;60.30;;;;;;1609237;72;738;-66
2022/11/10 06:31:14;;;;;;;;;;;22.30;60.00;;;;;;1617451;72;726;-65
2022/11/10 06:33:16;;;;;;;;;;;22.40;59.50;;;;;;1612742;72;1130;-67
2022/11/10 06:35:17;;;;;;;;;;;22.40;59.30;;;;;;1617185;72;919;-65
2022/11/10 06:37:19;;;;;;;;;;;22.40;59.10;;;;;;1618068;72;930;-65
2022/11/10 06:39:21;;;;;;;;;;;22.30;59.10;;;;;;1601316;72;1935;-66
2022/11/10 06:41:23;;;;;;;;;;;22.30;59.10;;;;;;1624288;72;626;-66
2022/11/10 06:43:25;;;;;;;;;;;22.30;59.10;;;;;;1609042;72;1134;-67
2022/11/10 06:45:29;;;;;;;;;;;22.20;59.10;;;;;;1600453;72;708;-62
2022/11/10 06:47:31;;;;;;;;;;;22.20;59.00;;;;;;1611130;72;835;-68
2022/11/10 06:49:33;;;;;;;;;;;22.10;59.20;;;;;;1612533;72;710;-65
2022/11/10 06:51:35;;;;;;;;;;;22.20;59.20;;;;;;1618957;72;681;-66
2022/11/10 06:53:37;;;;;;;;;;;22.10;59.10;;;;;;1584294;72;223167;-60
2022/11/10 06:55:39;;;;;;;;;;;22.20;58.90;;;;;;1547605;76;679;-60
2022/11/10 06:57:40;;;;;;;;;;;22.20;58.80;;;;;;1552716;75;1168;-59
2022/11/10 06:59:42;;;;;;;;;;;22.20;58.70;;;;;;1545597;76;1948;-60
2022/11/10 07:01:44;;;;;;;;;;;22.30;58.40;;;;;;1548856;75;569;-59
2022/11/10 07:03:46;;;;;;;;;;;22.20;58.10;;;;;;1549924;75;529;-62
2022/11/10 07:05:48;;;;;;;;;;;22.30;58.30;;;;;;1549585;75;693;-60
2022/11/10 07:07:50;;;;;;;;;;;22.30;58.10;;;;;;1546905;75;1108;-60
2022/11/10 07:09:52;;;;;;;;;;;22.30;57.90;;;;;;1545375;75;665;-60
2022/11/10 07:11:54;;;;;;;;;;;22.40;57.90;;;;;;1544577;75;675;-60
2022/11/10 07:13:56;;;;;;;;;;;22.40;57.80;;;;;;1552611;75;1029;-60
2022/11/10 07:15:58;;;;;;;;;;;22.30;57.80;;;;;;1555488;75;713;-59
2022/11/10 07:18:01;;;;;;;;;;;22.40;57.70;;;;;;1557487;75;1128;-58
2022/11/10 07:20:03;;;;;;;;;;;22.40;57.70;;;;;;1545898;75;1917;-58
2022/11/10 07:22:06;;;;;;;;;;;22.40;57.60;;;;;;1549274;75;1286;-59
2022/11/10 07:24:08;;;;;;;;;;;22.40;57.70;;;;;;1547508;75;1115;-58
2022/11/10 07:26:10;;;;;;;;;;;22.30;57.60;;;;;;1551239;75;622;-59
2022/11/10 07:28:12;;;;;;;;;;;22.40;57.80;;;;;;1552974;74;1172;-59
2022/11/10 07:30:13;;;;;;;;;;;22.40;57.70;;;;;;1547671;75;640;-58
2022/11/10 07:32:15;;;;;;;;;;;22.40;57.70;;;;;;1552148;75;712;-59
2022/11/10 07:34:17;;;;;;;;;;;22.40;57.60;;;;;;1548237;75;630;-58
2022/11/10 07:36:19;;;;;;;;;;;22.40;57.60;;;;;;1542957;75;1468;-59
2022/11/10 07:38:21;;;;;;;;;;;22.30;57.60;;;;;;1545883;75;1139;-59
2022/11/10 07:40:23;;;;;;;;;;;22.30;57.60;;;;;;1546442;75;1944;-59
2022/11/10 07:42:25;;;;;;;;;;;22.40;57.60;;;;;;1548215;76;669;-59
2022/11/10 07:44:26;;;;;;;;;;;22.40;57.60;;;;;;1546761;76;679;-59
2022/11/10 07:46:48;;;;;;;;;;;22.40;57.60;;;;;;1542533;75;745;-59
2022/11/10 07:48:50;;;;;;;;;;;22.40;57.60;;;;;;1533644;75;1228;-58
2022/11/10 07:50:52;;;;;;;;;;;22.30;57.80;;;;;;1573978;74;1462;-61
2022/11/10 07:52:55;;;;;;;;;;;22.30;57.80;;;;;;1565515;74;682;-58
2022/11/10 07:54:57;;;;;;;;;;;22.20;57.80;;;;;;1577289;74;1096;-59
2022/11/10 07:56:59;;;;;;;;;;;22.20;57.90;;;;;;1567707;74;591;-60
2022/11/10 07:59:06;;;;;;;;;;;22.20;58.00;;;;;;1564967;74;1930;-60
2022/11/10 08:01:05;;;;;;;;;;;22.20;57.90;;;;;;1564407;74;975;-59
2022/11/10 08:03:11;;;;;;;;;;;22.20;57.70;;;;;;1572054;74;648;-59
2022/11/10 08:05:12;;;;;;;;;;;22.20;57.70;;;;;;1566012;74;1435;-59
2022/11/10 08:07:14;;;;;;;;;;;22.30;57.70;;;;;;1566552;74;1143;-59
2022/11/10 08:09:16;;;;;;;;;;;22.20;57.60;;;;;;1584066;74;644;-59
2022/11/10 08:11:18;;;;;;;;;;;22.30;57.60;;;;;;1578680;74;673;-59
2022/11/10 08:13:20;;;;;;;;;;;22.20;57.30;;;;;;1574017;74;737;-59
2022/11/10 08:15:22;;;;;;;;;;;22.30;57.40;;;;;;1570825;74;752;-59
2022/11/10 08:17:24;;;;;;;;;;;22.20;57.30;;;;;;1568288;74;1363;-59
2022/11/10 08:19:26;;;;;;;;;;;22.20;57.20;;;;;;1580578;74;1933;-59
2022/11/10 08:21:28;;;;;;;;;;;22.20;57.20;;;;;;1568827;74;651;-59
2022/11/10 08:23:30;;;;;;;;;;;22.30;57.20;;;;;;1576879;74;681;-59
2022/11/10 08:25:32;;;;;;;;;;;22.30;57.30;;;;;;1573976;74;673;-59
2022/11/10 08:27:34;;;;;;;;;;;22.30;57.10;;;;;;1575508;74;1167;-59
2022/11/10 08:29:36;;;;;;;;;;;22.30;57.10;;;;;;1572570;74;682;-59
2022/11/10 08:31:38;;;;;;;;;;;22.30;57.10;;;;;;1572121;74;1477;-59
2022/11/10 08:33:40;;;;;;;;;;;22.30;56.80;;;;;;1569259;74;718;-61
2022/11/10 08:35:43;;;;;;;;;;;22.30;57.10;;;;;;1567895;74;1022;-58
2022/11/10 08:37:44;;;;;;;;;;;22.30;56.90;;;;;;1562924;74;1134;-59
2022/11/10 08:39:46;;;;;;;;;;;22.30;56.90;;;;;;1562593;74;1919;-59
2022/11/10 08:41:48;;;;;;;;;;;22.30;56.80;;;;;;1569264;74;651;-59
2022/11/10 08:43:50;;;;;;;;;;;22.30;56.90;;;;;;1567095;74;748;-59
2022/11/10 08:45:53;;;;;;;;;;;22.30;56.80;;;;;;1575715;74;1301;-59
2022/11/10 08:47:59;;;;;;;;;;;22.30;56.80;;;;;;1561833;74;1141;-59
2022/11/10 08:50:00;;;;;;;;;;;22.40;56.80;;;;;;1583220;74;716;-59
2022/11/10 08:52:03;;;;;;;;;;;22.30;56.70;;;;;;1569562;74;702;-60
2022/11/10 08:54:05;;;;;;;;;;;22.40;56.70;;;;;;1580172;74;708;-59
2022/11/10 08:56:07;;;;;;;;;;;22.40;56.70;;;;;;1569704;74;677;-60
2022/11/10 08:58:10;;;;;;;;;;;22.30;56.60;;;;;;1574452;74;1181;-59
2022/11/10 09:00:13;;;;;;;;;;;22.40;56.60;;;;;;1562387;74;1938;-60
2022/11/10 09:02:15;;;;;;;;;;;22.30;56.60;;;;;;1574399;74;698;-60
2022/11/10 09:04:16;;;;;;;;;;;22.40;56.50;;;;;;1573455;74;719;-59
2022/11/10 09:06:18;;;;;;;;;;;22.40;56.60;;;;;;1571962;74;736;-60
2022/11/10 09:08:20;;;;;;;;;;;22.30;56.70;;;;;;1569364;74;1138;-60
2022/11/10 09:10:22;;;;;;;;;;;22.40;56.70;;;;;;1570487;74;652;-60
2022/11/10 09:12:24;;;;;;;;;;;22.30;56.80;;;;;;1569402;74;635;-60
2022/11/10 09:14:26;;;;;;;;;;;22.30;56.80;;;;;;1571104;74;1439;-60
2022/11/10 09:16:28;;;;;;;;;;;22.30;56.80;;;;;;1582941;74;674;-59
2022/11/10 09:18:30;;;;;;;;;;;22.20;56.80;;;;;;1572716;74;1145;-60
2022/11/10 09:20:33;;;;;;;;;;;22.30;56.90;;;;;;1573549;74;1950;-60
2022/11/10 09:22:35;;;;;;;;;;;22.30;57.00;;;;;;1572888;74;659;-60
2022/11/10 09:24:37;;;;;;;;;;;22.20;57.00;;;;;;1573730;74;682;-60
2022/11/10 09:26:39;;;;;;;;;;;22.30;57.20;;;;;;1572292;74;746;-60
2022/11/10 09:28:41;;;;;;;;;;;22.20;57.10;;;;;;1577921;74;1345;-60
2022/11/10 09:30:44;;;;;;;;;;;22.20;57.10;;;;;;1571421;74;659;-60
2022/11/10 09:32:48;;;;;;;;;;;22.20;57.10;;;;;;1572600;74;768;-58
2022/11/10 09:34:50;;;;;;;;;;;22.30;57.20;;;;;;1572273;74;1863;-60
2022/11/10 09:36:52;;;;;;;;;;;22.20;57.10;;;;;;1573016;74;660;-60
2022/11/10 09:38:54;;;;;;;;;;;22.30;57.40;;;;;;1572315;74;1090;-60
2022/11/10 09:41:01;;;;;;;;;;;22.30;57.40;;;;;;1576857;74;1905;-60
2022/11/10 09:43:03;;;;;;;;;;;22.30;57.40;;;;;;1569700;74;1993;-60
2022/11/10 09:45:06;;;;;;;;;;;22.20;57.20;;;;;;1574951;74;705;-60
2022/11/10 09:47:12;;;;;;;;;;;22.20;57.30;;;;;;1573654;74;768;-59
2022/11/10 09:49:31;;;;;;;;;;;22.20;57.20;;;;;;1573040;74;767;-59
2022/11/10 09:51:37;;;;;;;;;;;22.20;57.10;;;;;;1573939;74;1693;-59
2022/11/10 09:53:40;;;;;;;;;;;22.30;57.30;;;;;;1576731;74;670;-60
2022/11/10 09:55:43;;;;;;;;;;;22.30;57.30;;;;;;1567337;74;675;-59
2022/11/10 09:57:45;;;;;;;;;;;22.30;57.30;;;;;;1564628;74;1556;-59
2022/11/10 09:59:47;;;;;;;;;;;22.20;57.30;;;;;;1557523;74;1943;-60
2022/11/10 10:01:50;;;;;;;;;;;22.30;57.30;;;;;;1574309;74;690;-59
2022/11/10 10:03:54;;;;;;;;;;;22.30;57.30;;;;;;1570835;74;670;-59
2022/11/10 10:06:01;;;;;;;;;;;22.40;57.30;;;;;;1567037;74;1818;-60
2022/11/10 10:08:01;;;;;;;;;;;22.40;57.40;;;;;;1572833;74;1628;-60
2022/11/10 10:10:10;;;;;;;;;;;22.30;57.40;;;;;;1567261;74;1479;-60
2022/11/10 10:12:17;;;;;;;;;;;22.40;57.40;;;;;;1579512;74;2011;-60
2022/11/10 10:14:29;;;;;;;;;;;22.30;57.30;;;;;;1572856;74;683;-59
2022/11/10 10:16:36;;;;;;;;;;;22.40;57.30;;;;;;1572065;74;674;-60
2022/11/10 10:18:55;;;;;;;;;;;22.40;57.30;;;;;;1573768;74;1253;-59
2022/11/10 10:21:07;;;;;;;;;;;22.40;57.30;;;;;;1563449;74;1937;-60
2022/11/10 10:23:16;;;;;;;;;;;22.30;57.20;;;;;;1565463;74;1401;-59
2022/11/10 10:25:20;;;;;;;;;;;22.40;57.30;;;;;;1570192;74;1492;-59
2022/11/10 10:27:24;;;;;;;;;;;22.40;57.20;;;;;;1575513;74;1197;-59
2022/11/10 10:29:34;;;;;;;;;;;22.40;57.20;;;;;;1570554;74;804;-59
2022/11/10 10:31:37;;;;;;;;;;;22.40;57.20;;;;;;1564924;74;965;-58
2022/11/10 10:33:39;;;;;;;;;;;22.40;57.30;;;;;;1560018;74;1675;-59
2022/11/10 10:35:41;;;;;;;;;;;22.30;57.50;;;;;;1573506;74;667;-59
2022/11/10 10:37:44;;;;;;;;;;;22.30;57.60;;;;;;1571296;74;1139;-59
2022/11/10 10:39:47;;;;;;;;;;;22.40;57.50;;;;;;1573464;74;1920;-59
2022/11/10 10:41:49;;;;;;;;;;;22.30;57.60;;;;;;1573116;74;618;-58
2022/11/10 10:43:51;;;;;;;;;;;22.40;57.50;;;;;;1573697;74;693;-58
2022/11/10 10:45:57;;;;;;;;;;;22.40;57.50;;;;;;1568810;74;808;-58
2022/11/10 10:48:01;;;;;;;;;;;22.40;57.50;;;;;;1564625;74;1697;-59
2022/11/10 10:50:16;;;;;;;;;;;22.40;57.50;;;;;;1575973;74;774;-59
2022/11/10 10:52:23;;;;;;;;;;;22.40;57.50;;;;;;1570944;74;1479;-60
2022/11/10 10:54:28;;;;;;;;;;;22.40;57.50;;;;;;1576156;74;1609;-60
2022/11/10 10:56:32;;;;;;;;;;;22.30;57.60;;;;;;1567823;74;670;-60
2022/11/10 10:58:36;;;;;;;;;;;22.30;57.70;;;;;;1573976;74;1164;-59
2022/11/10 11:00:40;;;;;;;;;;;22.30;57.80;;;;;;1570600;74;1930;-60
2022/11/10 11:02:42;;;;;;;;;;;22.20;57.80;;;;;;1569049;74;892;-60
2022/11/10 11:04:44;;;;;;;;;;;22.20;57.90;;;;;;1572901;74;699;-60
2022/11/10 11:06:47;;;;;;;;;;;22.30;58.20;;;;;;1572535;74;1532;-60
2022/11/10 11:08:59;;;;;;;;;;;22.20;58.10;;;;;;1571746;74;1682;-60
2022/11/10 11:11:03;;;;;;;;;;;22.20;58.10;;;;;;1576735;74;698;-60
2022/11/10 11:13:21;;;;;;;;;;;22.20;58.30;;;;;;1573166;74;2252;-59
2022/11/10 11:15:29;;;;;;;;;;;22.20;58.30;;;;;;1568489;74;697;-58
2022/11/10 11:17:28;;;;;;;;;;;22.20;58.40;;;;;;1567148;74;1165;-59
2022/11/10 11:19:30;;;;;;;;;;;22.20;58.40;;;;;;1576164;74;697;-59
2022/11/10 11:21:37;;;;;;;;;;;22.20;58.40;;;;;;1570534;74;1942;-60
2022/11/10 11:23:43;;;;;;;;;;;22.20;58.70;;;;;;1579296;74;697;-60
2022/11/10 11:25:45;;;;;;;;;;;22.20;58.70;;;;;;1572964;74;1596;-60
2022/11/10 11:27:58;;;;;;;;;;;22.20;58.70;;;;;;1575907;74;1074;-59
2022/11/10 11:30:02;;;;;;;;;;;22.20;58.70;;;;;;1564390;74;582;-59
2022/11/10 11:32:08;;;;;;;;;;;22.20;58.80;;;;;;1570187;74;1656;-59
2022/11/10 11:34:12;;;;;;;;;;;22.20;58.80;;;;;;1571785;74;658;-58
2022/11/10 11:36:24;;;;;;;;;;;22.10;58.80;;;;;;1573253;74;1371;-59
2022/11/10 11:38:33;;;;;;;;;;;22.20;59.00;;;;;;1566522;74;1138;-58
2022/11/10 11:40:51;;;;;;;;;;;22.20;59.00;;;;;;1572914;74;1950;-58
2022/11/10 11:43:11;;;;;;;;;;;22.10;59.10;;;;;;1573494;74;670;-59
2022/11/10 11:45:15;;;;;;;;;;;22.10;59.30;;;;;;1579369;74;726;-59
2022/11/10 11:47:31;;;;;;;;;;;22.00;59.40;;;;;;1571638;74;1640;-59
2022/11/10 11:49:34;;;;;;;;;;;22.00;59.70;;;;;;1572648;74;1427;-59
2022/11/10 11:51:47;;;;;;;;;;;22.00;59.90;;;;;;1569761;74;1987;-60
2022/11/10 11:53:51;;;;;;;;;;;21.90;60.20;;;;;;1574327;74;1976;-60
2022/11/10 11:55:54;;;;;;;;;;;22.00;60.60;;;;;;1573601;74;1790;-60
2022/11/10 11:58:00;;;;;;;;;;;21.90;61.20;;;;;;1573904;74;1149;-58
2022/11/10 12:00:04;;;;;;;;;;;21.90;61.70;;;;;;1572503;74;1934;-58
2022/11/10 12:02:10;;;;;;;;;;;21.80;61.80;;;;;;1571940;74;702;-59
2022/11/10 12:04:32;;;;;;;;;;;21.90;62.00;;;;;;1568493;74;1796;-59
2022/11/10 12:06:54;;;;;;;;;;;21.90;62.80;;;;;;1580611;74;670;-59
2022/11/10 12:09:07;;;;;;;;;;;21.90;63.20;;;;;;1575272;74;1859;-59
2022/11/10 12:11:10;;;;;;;;;;;21.90;63.20;;;;;;1572801;74;1808;-60
2022/11/10 12:13:17;;;;;;;;;;;21.80;63.10;;;;;;1570131;74;630;-59
2022/11/10 12:15:33;;;;;;;;;;;21.80;63.10;;;;;;1574230;74;1861;-59
2022/11/10 12:17:36;;;;;;;;;;;21.80;63.00;;;;;;1575339;74;1427;-61
2022/11/10 12:19:46;;;;;;;;;;;21.80;62.90;;;;;;1572982;74;1061;-60
2022/11/10 12:21:51;;;;;;;;;;;21.80;62.90;;;;;;1514421;75;1946;-59
2022/11/10 12:24:11;;;;;;;;;;;21.80;62.80;;;;;;1574720;74;707;-59
2022/11/10 12:26:14;;;;;;;;;;;21.80;62.70;;;;;;1570543;74;706;-59
2022/11/10 12:28:17;;;;;;;;;;;21.80;62.70;;;;;;1571470;74;1756;-60
2022/11/10 12:30:19;;;;;;;;;;;21.80;62.60;;;;;;1574738;74;589;-60